Time;durP1;ratioP1;P1;durP2;ratioP2;P2;SDS_P1;SDS_P2;PMS_P1;PMS_P2;Temp;Humidity;BMP_temperature;BMP_pressure;BME280_temperature;BME280_humidity;BME280_pressure;Samples;Min_cycle;Max_cycle;Signal;HPM_P1;HPM_P2
2023/03/28 00:02:09;;;;;;;1.47;0.80;;;;;;;;;;10574405;28;20459;-85
2023/03/28 00:07:13;;;;;;;1.70;0.68;;;;;;;;;;10574299;28;20395;-84
2023/03/28 00:12:15;;;;;;;0.50;0.40;;;;;;;;;;10573612;28;20418;-86
2023/03/28 00:17:17;;;;;;;0.43;0.32;;;;;;;;;;10575864;28;20595;-86
2023/03/28 00:22:20;;;;;;;0.70;0.40;;;;;;;;;;10572312;28;20398;-86
2023/03/28 00:27:22;;;;;;;0.82;0.60;;;;;;;;;;10558929;22;20446;-82
2023/03/28 00:32:24;;;;;;;1.15;0.70;;;;;;;;;;10506988;28;20426;-82
2023/03/28 00:37:27;;;;;;;1.13;0.68;;;;;;;;;;10497448;28;20767;-81
2023/03/28 00:42:29;;;;;;;1.90;0.98;;;;;;;;;;10504853;28;20425;-82
2023/03/28 00:47:42;;;;;;;3.80;1.20;;;;;;;;;;10506532;28;20410;-83
2023/03/28 00:52:51;;;;;;;2.08;1.27;;;;;;;;;;10494931;28;20424;-82
2023/03/28 00:57:53;;;;;;;2.75;1.20;;;;;;;;;;10501205;28;20404;-83
2023/03/28 01:02:57;;;;;;;1.77;1.25;;;;;;;;;;10496904;28;20402;-82
2023/03/28 01:08:06;;;;;;;1.75;1.05;;;;;;;;;;10489526;28;20409;-82
2023/03/28 01:13:09;;;;;;;1.70;1.10;;;;;;;;;;10498962;28;20458;-83
2023/03/28 01:18:11;;;;;;;1.65;1.10;;;;;;;;;;10508890;28;20410;-82
2023/03/28 01:23:45;;;;;;;2.30;0.90;;;;;;;;;;10493056;28;20881;-82
2023/03/28 01:29:13;;;;;;;2.95;1.30;;;;;;;;;;10501164;28;20938;-82
2023/03/28 01:34:50;;;;;;;1.55;1.08;;;;;;;;;;10501802;28;20402;-82
2023/03/28 01:40:24;;;;;;;1.35;1.02;;;;;;;;;;10493428;28;20919;-82
2023/03/28 01:45:38;;;;;;;1.80;0.90;;;;;;;;;;10487291;28;20930;-82
2023/03/28 01:50:45;;;;;;;1.30;0.90;;;;;;;;;;10498320;28;20455;-82
2023/03/28 01:55:54;;;;;;;2.75;1.00;;;;;;;;;;10495522;28;20489;-82
2023/03/28 02:01:03;;;;;;;2.60;1.00;;;;;;;;;;10503275;28;20528;-82
2023/03/28 02:06:07;;;;;;;1.30;1.20;;;;;;;;;;10495949;28;20402;-82
2023/03/28 02:11:10;;;;;;;2.63;1.20;;;;;;;;;;10501555;28;20428;-82
2023/03/28 02:16:15;;;;;;;2.25;1.30;;;;;;;;;;10500502;28;20745;-82
2023/03/28 02:21:20;;;;;;;1.40;1.10;;;;;;;;;;10490862;28;20874;-82
2023/03/28 02:26:25;;;;;;;2.72;1.25;;;;;;;;;;10503066;28;20452;-82
2023/03/28 02:31:27;;;;;;;2.00;1.23;;;;;;;;;;10505293;28;20426;-82
2023/03/28 02:36:38;;;;;;;1.85;1.00;;;;;;;;;;10491337;28;20411;-82
2023/03/28 02:41:49;;;;;;;2.25;1.05;;;;;;;;;;10496932;28;20491;-82
2023/03/28 02:46:58;;;;;;;1.42;0.65;;;;;;;;;;10506164;28;20477;-82
2023/03/28 02:52:10;;;;;;;0.80;0.50;;;;;;;;;;10497749;28;20465;-82
2023/03/28 02:57:19;;;;;;;0.35;0.35;;;;;;;;;;10500362;28;20462;-82
2023/03/28 03:02:21;;;;;;;0.52;0.30;;;;;;;;;;10501325;28;20480;-82
2023/03/28 03:07:24;;;;;;;0.82;0.30;;;;;;;;;;10489827;28;21136;-82
2023/03/28 03:12:27;;;;;;;0.35;0.30;;;;;;;;;;10505105;28;20786;-82
2023/03/28 03:17:29;;;;;;;0.50;0.30;;;;;;;;;;10492460;28;20487;-82
2023/03/28 03:22:31;;;;;;;0.70;0.30;;;;;;;;;;10489476;28;20411;-82
2023/03/28 03:27:35;;;;;;;0.30;0.30;;;;;;;;;;10502842;28;20960;-82
2023/03/28 03:32:37;;;;;;;0.70;0.22;;;;;;;;;;10502298;28;21214;-82
2023/03/28 03:37:40;;;;;;;0.40;0.20;;;;;;;;;;10501731;28;20435;-82
2023/03/28 03:42:43;;;;;;;1.08;0.30;;;;;;;;;;10508755;28;20415;-82
2023/03/28 03:47:45;;;;;;;0.40;0.22;;;;;;;;;;10511884;28;20996;-82
2023/03/28 03:52:47;;;;;;;0.20;0.20;;;;;;;;;;10506723;28;21118;-82
2023/03/28 03:57:50;;;;;;;0.30;0.30;;;;;;;;;;10507155;28;20465;-82
2023/03/28 04:02:52;;;;;;;0.57;0.30;;;;;;;;;;10504587;28;20408;-82
2023/03/28 04:07:56;;;;;;;0.45;0.40;;;;;;;;;;10498957;28;20424;-82
2023/03/28 04:12:59;;;;;;;0.90;0.70;;;;;;;;;;10511512;28;20514;-82
2023/03/28 04:18:03;;;;;;;1.75;1.05;;;;;;;;;;10504204;28;20420;-82
2023/03/28 04:23:07;;;;;;;2.08;0.70;;;;;;;;;;10500928;28;20492;-82
2023/03/28 04:28:10;;;;;;;1.38;0.90;;;;;;;;;;10508678;28;20886;-82
2023/03/28 04:33:12;;;;;;;0.55;0.40;;;;;;;;;;10507540;28;20433;-82
2023/03/28 04:38:16;;;;;;;0.43;0.43;;;;;;;;;;10516456;28;20417;-82
2023/03/28 04:43:20;;;;;;;0.47;0.45;;;;;;;;;;10514376;28;20951;-81
2023/03/28 04:48:22;;;;;;;0.83;0.50;;;;;;;;;;10522249;28;20485;-83
2023/03/28 04:53:24;;;;;;;2.28;0.40;;;;;;;;;;10508650;28;20464;-82
2023/03/28 04:58:27;;;;;;;0.43;0.40;;;;;;;;;;10509940;28;20420;-82
2023/03/28 05:03:29;;;;;;;1.10;0.50;;;;;;;;;;10509062;28;20892;-81
2023/03/28 05:08:31;;;;;;;1.30;0.68;;;;;;;;;;10503443;28;20904;-82
2023/03/28 05:13:35;;;;;;;1.20;0.57;;;;;;;;;;10509891;28;20472;-82
2023/03/28 05:18:36;;;;;;;1.43;0.60;;;;;;;;;;10504499;28;20408;-81
2023/03/28 05:23:38;;;;;;;1.10;0.50;;;;;;;;;;10501035;28;20876;-82
2023/03/28 05:28:42;;;;;;;0.90;0.70;;;;;;;;;;10507525;28;20455;-82
2023/03/28 05:33:44;;;;;;;1.50;0.70;;;;;;;;;;10516775;28;20420;-82
2023/03/28 05:38:46;;;;;;;2.10;0.60;;;;;;;;;;10508747;28;20394;-83
2023/03/28 05:43:49;;;;;;;1.00;0.50;;;;;;;;;;10507225;28;20770;-83
2023/03/28 05:48:51;;;;;;;1.17;0.60;;;;;;;;;;10501907;28;20416;-82
2023/03/28 05:53:53;;;;;;;2.92;0.60;;;;;;;;;;10495031;28;20422;-86
2023/03/28 05:58:56;;;;;;;2.90;0.80;;;;;;;;;;10499990;28;20412;-84
2023/03/28 06:03:58;;;;;;;0.97;0.87;;;;;;;;;;10496420;28;20999;-83
2023/03/28 06:09:00;;;;;;;1.87;0.67;;;;;;;;;;10498621;28;20789;-84
2023/03/28 06:14:03;;;;;;;1.45;0.50;;;;;;;;;;10506457;28;20453;-84
2023/03/28 06:19:05;;;;;;;1.95;0.70;;;;;;;;;;10494747;28;20463;-82
2023/03/28 06:24:07;;;;;;;1.65;0.70;;;;;;;;;;10501565;28;20885;-82
2023/03/28 06:29:10;;;;;;;1.02;0.63;;;;;;;;;;10503466;28;20592;-83
2023/03/28 06:34:12;;;;;;;1.25;0.70;;;;;;;;;;10491972;28;20426;-82
2023/03/28 06:39:14;;;;;;;2.10;0.70;;;;;;;;;;10504132;28;20397;-83
2023/03/28 06:44:17;;;;;;;2.15;0.80;;;;;;;;;;10500258;28;20413;-83
2023/03/28 06:49:20;;;;;;;1.05;0.52;;;;;;;;;;10503028;28;20402;-84
2023/03/28 06:54:22;;;;;;;6.03;0.80;;;;;;;;;;10501174;28;21150;-82
2023/03/28 06:59:25;;;;;;;5.55;0.90;;;;;;;;;;10496851;28;20398;-82
2023/03/28 07:04:27;;;;;;;2.47;1.20;;;;;;;;;;10491341;28;20452;-83
2023/03/28 07:09:30;;;;;;;2.10;0.50;;;;;;;;;;10504710;28;20390;-83
2023/03/28 07:14:33;;;;;;;5.20;1.00;;;;;;;;;;10510238;28;20793;-83
2023/03/28 07:19:35;;;;;;;2.15;1.00;;;;;;;;;;10500422;28;20870;-83
2023/03/28 07:24:37;;;;;;;1.40;0.50;;;;;;;;;;10509264;28;20964;-83
2023/03/28 07:29:40;;;;;;;1.00;0.77;;;;;;;;;;10507911;28;20445;-84
2023/03/28 07:34:42;;;;;;;1.60;0.88;;;;;;;;;;10498798;28;20480;-83
2023/03/28 07:39:44;;;;;;;4.57;1.00;;;;;;;;;;10507766;28;20402;-84
2023/03/28 07:44:47;;;;;;;0.80;0.60;;;;;;;;;;10504828;28;20953;-84
2023/03/28 07:49:50;;;;;;;1.25;0.80;;;;;;;;;;10510086;28;20410;-83
2023/03/28 07:54:52;;;;;;;1.70;0.77;;;;;;;;;;10510621;28;20493;-84
2023/03/28 07:59:56;;;;;;;1.73;1.10;;;;;;;;;;10502936;28;20398;-83
2023/03/28 08:04:58;;;;;;;0.90;0.77;;;;;;;;;;10511857;28;20416;-84
2023/03/28 08:10:00;;;;;;;1.90;0.90;;;;;;;;;;10510703;28;20404;-84
2023/03/28 08:15:03;;;;;;;3.45;0.70;;;;;;;;;;10498251;28;20424;-83
2023/03/28 08:20:09;;;;;;;0.55;0.25;;;;;;;;;;10500763;28;20461;-84
2023/03/28 08:25:11;;;;;;;0.65;0.38;;;;;;;;;;10508107;28;20982;-84
2023/03/28 08:30:14;;;;;;;0.80;0.20;;;;;;;;;;10500165;28;20422;-84
2023/03/28 08:35:16;;;;;;;1.00;0.20;;;;;;;;;;10500040;28;20975;-83
2023/03/28 08:40:20;;;;;;;1.00;0.32;;;;;;;;;;10508116;28;20870;-84
2023/03/28 08:45:35;;;;;;;0.90;0.57;;;;;;;;;;10497948;28;20766;-84
2023/03/28 08:50:41;;;;;;;3.70;0.60;;;;;;;;;;10508749;28;20417;-84
2023/03/28 08:55:43;;;;;;;1.08;0.57;;;;;;;;;;10505977;28;20511;-84
2023/03/28 09:00:48;;;;;;;0.80;0.50;;;;;;;;;;10495150;28;20408;-84
2023/03/28 09:05:53;;;;;;;1.73;0.50;;;;;;;;;;10503631;28;20405;-84
2023/03/28 09:11:02;;;;;;;0.68;0.40;;;;;;;;;;10509885;28;20440;-84
2023/03/28 09:16:28;;;;;;;0.90;0.40;;;;;;;;;;10494068;28;20402;-83
2023/03/28 09:21:38;;;;;;;0.80;0.20;;;;;;;;;;10504576;28;20425;-84
2023/03/28 11:19:09;;;;;;;0.80;0.53;;;;;;;;;;10600721;27;20401;-83
2023/03/28 11:24:23;;;;;;;0.60;0.50;;;;;;;;;;10595570;27;20440;-83
2023/03/28 11:29:38;;;;;;;3.92;1.85;;;;;;;;;;10592949;27;20492;-83
2023/03/28 11:34:46;;;;;;;1.00;0.90;;;;;;;;;;10595868;27;21228;-84
2023/03/28 11:39:53;;;;;;;1.60;1.20;;;;;;;;;;10601253;27;20417;-83
2023/03/28 11:45:01;;;;;;;11.85;2.33;;;;;;;;;;10593518;27;20399;-83
2023/03/28 11:50:10;;;;;;;1.77;1.30;;;;;;;;;;10592461;27;20472;-82
2023/03/28 11:55:17;;;;;;;4.40;1.50;;;;;;;;;;10598342;27;20423;-83
2023/03/28 12:00:25;;;;;;;1.20;1.02;;;;;;;;;;10597997;27;20449;-84
2023/03/28 12:05:33;;;;;;;0.77;0.70;;;;;;;;;;10591120;27;20402;-83
2023/03/28 12:10:37;;;;;;;1.52;0.95;;;;;;;;;;10598029;27;20519;-84
2023/03/28 12:15:46;;;;;;;1.15;1.05;;;;;;;;;;10586156;27;20400;-84
2023/03/28 12:20:59;;;;;;;5.50;1.50;;;;;;;;;;10593611;27;20489;-83
2023/03/28 12:26:16;;;;;;;1.40;1.30;;;;;;;;;;10588678;27;20406;-83
2023/03/28 12:31:26;;;;;;;2.20;1.10;;;;;;;;;;10594007;27;20492;-84
2023/03/28 12:36:34;;;;;;;4.23;1.33;;;;;;;;;;10597796;27;20885;-83
2023/03/28 12:41:38;;;;;;;2.20;1.23;;;;;;;;;;10596223;27;20438;-83
2023/03/28 12:46:45;;;;;;;3.17;1.40;;;;;;;;;;10595770;27;21958;-84
2023/03/28 12:51:53;;;;;;;1.57;1.33;;;;;;;;;;10600820;27;20420;-83
2023/03/28 12:57:15;;;;;;;2.63;1.20;;;;;;;;;;10593941;27;20393;-83
2023/03/28 13:02:23;;;;;;;1.52;1.40;;;;;;;;;;10596648;27;20475;-83
2023/03/28 13:07:36;;;;;;;1.30;1.20;;;;;;;;;;10597172;27;20411;-82
2023/03/28 13:12:50;;;;;;;4.97;1.80;;;;;;;;;;10593072;27;20432;-83
2023/03/28 13:18:26;;;;;;;2.00;1.40;;;;;;;;;;10596087;27;20402;-83
2023/03/28 13:23:33;;;;;;;4.87;1.80;;;;;;;;;;10599239;27;20492;-83
2023/03/28 13:28:42;;;;;;;4.20;2.00;;;;;;;;;;10593325;27;21177;-83
2023/03/28 13:33:47;;;;;;;4.60;1.90;;;;;;;;;;10593718;27;20448;-84
2023/03/28 13:38:59;;;;;;;2.75;1.80;;;;;;;;;;10592515;27;20394;-83
2023/03/28 13:44:03;;;;;;;2.17;1.98;;;;;;;;;;10596343;27;20418;-83
2023/03/28 13:49:07;;;;;;;3.20;2.08;;;;;;;;;;10593279;27;20398;-84
2023/03/28 13:54:11;;;;;;;2.95;2.28;;;;;;;;;;10588337;27;20421;-83
2023/03/28 13:59:16;;;;;;;4.90;2.92;;;;;;;;;;10595373;27;20394;-83
2023/03/28 14:04:20;;;;;;;13.55;3.40;;;;;;;;;;10591926;27;20385;-84
2023/03/28 14:09:31;;;;;;;2.85;2.40;;;;;;;;;;10583623;27;20394;-84
2023/03/28 14:14:36;;;;;;;3.50;2.40;;;;;;;;;;10589714;27;20830;-84
2023/03/28 14:19:41;;;;;;;4.22;2.30;;;;;;;;;;10589782;27;21510;-83
2023/03/28 14:24:47;;;;;;;2.78;2.40;;;;;;;;;;10593120;27;20409;-83
2023/03/28 14:29:52;;;;;;;2.40;2.20;;;;;;;;;;10590885;27;20811;-84
2023/03/28 14:34:55;;;;;;;3.37;3.07;;;;;;;;;;10591588;27;20495;-84
2023/03/28 14:39:58;;;;;;;2.90;2.60;;;;;;;;;;10592024;27;20509;-83
2023/03/28 14:45:00;;;;;;;3.47;2.63;;;;;;;;;;10586368;27;21031;-83
2023/03/28 14:50:04;;;;;;;3.10;2.87;;;;;;;;;;10586706;28;20459;-82
2023/03/28 14:55:11;;;;;;;4.25;3.40;;;;;;;;;;10583460;28;20423;-83
2023/03/28 15:00:18;;;;;;;4.15;3.28;;;;;;;;;;10581731;27;20888;-83
2023/03/28 15:05:23;;;;;;;3.80;3.20;;;;;;;;;;10589517;28;20406;-83
2023/03/28 15:10:27;;;;;;;4.10;3.28;;;;;;;;;;10594294;28;20491;-84
2023/03/28 15:15:33;;;;;;;3.78;2.92;;;;;;;;;;10593445;27;20405;-84
2023/03/28 15:20:37;;;;;;;6.47;3.40;;;;;;;;;;10536624;28;20961;-84
2023/03/28 15:25:43;;;;;;;4.20;2.83;;;;;;;;;;10544422;28;20404;-84
2023/03/28 15:30:48;;;;;;;4.45;3.00;;;;;;;;;;10539740;28;20439;-84
2023/03/28 15:35:50;;;;;;;5.63;2.60;;;;;;;;;;10556700;28;20414;-84
2023/03/28 15:41:10;;;;;;;3.58;2.63;;;;;;;;;;10541533;28;20407;-84
2023/03/28 15:46:15;;;;;;;3.40;3.10;;;;;;;;;;10540724;28;20476;-83
2023/03/28 15:51:19;;;;;;;3.30;3.00;;;;;;;;;;10547094;28;20402;-84
2023/03/28 15:56:26;;;;;;;3.30;2.90;;;;;;;;;;10544333;28;20490;-84
2023/03/28 16:01:30;;;;;;;5.00;2.90;;;;;;;;;;10541298;28;20411;-83
2023/03/28 16:06:41;;;;;;;4.15;3.40;;;;;;;;;;10547394;28;20407;-83
2023/03/28 16:11:47;;;;;;;3.28;2.50;;;;;;;;;;10543104;28;20928;-83
2023/03/28 16:16:55;;;;;;;3.35;2.90;;;;;;;;;;10551439;27;20939;-82
2023/03/28 16:21:57;;;;;;;4.47;2.72;;;;;;;;;;10592122;27;20424;-83
2023/03/28 16:27:02;;;;;;;3.30;3.00;;;;;;;;;;10586343;27;20871;-83
2023/03/28 16:32:05;;;;;;;4.05;3.17;;;;;;;;;;10597723;27;20428;-83
2023/03/28 16:37:09;;;;;;;3.67;3.10;;;;;;;;;;10598023;27;20400;-83
2023/03/28 16:42:13;;;;;;;3.40;3.10;;;;;;;;;;10604304;27;20433;-83
2023/03/28 16:47:16;;;;;;;4.40;3.05;;;;;;;;;;10609439;27;20431;-84
2023/03/28 16:52:23;;;;;;;4.15;3.55;;;;;;;;;;10599583;27;20415;-82
2023/03/28 16:57:29;;;;;;;5.75;3.17;;;;;;;;;;10588627;27;21226;-82
2023/03/28 17:02:32;;;;;;;4.22;3.00;;;;;;;;;;10604457;27;20389;-82
2023/03/28 17:07:35;;;;;;;3.35;3.05;;;;;;;;;;10598855;27;20521;-83
2023/03/28 17:12:40;;;;;;;3.50;3.20;;;;;;;;;;10597115;27;20421;-82
2023/03/28 18:00:42;;;;;;;26.33;17.57;;;;;;;;;;10588790;27;20396;-82
2023/03/28 18:05:47;;;;;;;10.23;6.25;;;;;;;;;;10597014;27;20774;-83
2023/03/28 18:10:49;;;;;;;6.70;6.00;;;;;;;;;;10601016;27;20873;-79
2023/03/28 18:15:53;;;;;;;10.35;7.70;;;;;;;;;;10603134;27;20415;-84
2023/03/28 18:20:55;;;;;;;9.82;7.43;;;;;;;;;;10596460;27;20791;-83
2023/03/28 18:25:57;;;;;;;7.40;6.60;;;;;;;;;;10589922;27;20428;-83
2023/03/28 18:31:08;;;;;;;7.40;6.10;;;;;;;;;;10591750;27;20402;-84
2023/03/28 18:36:11;;;;;;;7.22;5.32;;;;;;;;;;10597178;28;20420;-84
2023/03/28 18:41:13;;;;;;;7.50;6.38;;;;;;;;;;10598830;27;20409;-84
2023/03/28 18:46:16;;;;;;;9.32;7.13;;;;;;;;;;10589335;27;20413;-84
2023/03/28 18:51:19;;;;;;;10.48;7.63;;;;;;;;;;10586781;28;20432;-84
2023/03/28 18:56:21;;;;;;;9.25;7.28;;;;;;;;;;10583780;28;20917;-84
2023/03/28 19:01:25;;;;;;;9.65;7.57;;;;;;;;;;10588682;28;20402;-84
2023/03/28 19:06:27;;;;;;;10.27;7.17;;;;;;;;;;10566930;28;20481;-84
2023/03/28 19:11:28;;;;;;;8.38;7.30;;;;;;;;;;10599773;27;20832;-84
2023/03/28 19:16:32;;;;;;;8.13;6.87;;;;;;;;;;10598078;27;20497;-85
2023/03/28 19:21:34;;;;;;;10.35;7.93;;;;;;;;;;10594473;27;20406;-87
2023/03/28 19:26:35;;;;;;;10.55;8.45;;;;;;;;;;10590524;27;20453;-84
2023/03/28 19:31:39;;;;;;;11.07;8.68;;;;;;;;;;10610602;27;20397;-84
2023/03/28 19:36:41;;;;;;;13.75;9.05;;;;;;;;;;10588776;27;20419;-84
2023/03/28 19:41:42;;;;;;;13.80;9.40;;;;;;;;;;10594901;27;20796;-85
2023/03/28 19:46:46;;;;;;;11.68;9.13;;;;;;;;;;10608036;27;20815;-83
2023/03/28 19:51:48;;;;;;;12.98;10.85;;;;;;;;;;10591404;27;20950;-83
2023/03/28 19:56:49;;;;;;;15.25;11.43;;;;;;;;;;10585208;27;20424;-77
2023/03/28 20:01:53;;;;;;;15.15;11.63;;;;;;;;;;10589818;27;20404;-84
2023/03/28 20:06:55;;;;;;;17.65;12.30;;;;;;;;;;10567476;27;20487;-83
2023/03/28 20:11:57;;;;;;;14.32;11.13;;;;;;;;;;10568242;27;20392;-84
2023/03/28 20:17:01;;;;;;;12.33;9.30;;;;;;;;;;10569183;27;20507;-84
2023/03/28 20:22:03;;;;;;;15.47;11.10;;;;;;;;;;10575221;27;20431;-83
2023/03/28 20:27:05;;;;;;;12.20;9.43;;;;;;;;;;10569268;27;20412;-84
2023/03/28 20:32:08;;;;;;;14.90;11.00;;;;;;;;;;10575701;27;20408;-83
2023/03/28 20:37:12;;;;;;;15.68;10.98;;;;;;;;;;10573660;27;20473;-85
2023/03/28 20:42:16;;;;;;;19.05;12.18;;;;;;;;;;10582699;27;20408;-83
2023/03/28 20:47:23;;;;;;;16.57;12.27;;;;;;;;;;10559861;27;20417;-83
2023/03/28 20:52:25;;;;;;;16.53;12.80;;;;;;;;;;10577317;27;20453;-84
2023/03/28 20:57:29;;;;;;;14.93;11.45;;;;;;;;;;10577599;27;20836;-84
2023/03/28 21:02:33;;;;;;;16.38;11.40;;;;;;;;;;10557161;27;20907;-83
2023/03/28 21:07:34;;;;;;;15.10;10.75;;;;;;;;;;10548992;28;20510;-84
2023/03/28 21:12:37;;;;;;;15.13;11.15;;;;;;;;;;10548198;28;20452;-84
2023/03/28 21:17:41;;;;;;;14.93;10.48;;;;;;;;;;10548761;28;20890;-85
2023/03/28 21:22:43;;;;;;;13.48;10.18;;;;;;;;;;10556701;28;20404;-84
2023/03/28 21:27:45;;;;;;;12.25;10.18;;;;;;;;;;10547773;28;20506;-83
2023/03/28 21:32:48;;;;;;;12.90;9.50;;;;;;;;;;10550297;28;20411;-84
2023/03/28 21:37:50;;;;;;;13.50;9.75;;;;;;;;;;10547221;28;20510;-84
2023/03/28 21:42:52;;;;;;;11.68;8.90;;;;;;;;;;10557991;28;20485;-83
2023/03/28 21:47:55;;;;;;;13.93;8.70;;;;;;;;;;10553026;28;20412;-82
2023/03/28 21:52:57;;;;;;;10.90;8.13;;;;;;;;;;10535883;28;20420;-82
2023/03/28 21:57:59;;;;;;;9.60;7.40;;;;;;;;;;10542673;28;20421;-81
2023/03/28 22:03:02;;;;;;;10.50;6.90;;;;;;;;;;10544587;28;20410;-82
2023/03/28 22:08:04;;;;;;;8.48;6.43;;;;;;;;;;10575231;27;21172;-82
2023/03/28 22:13:06;;;;;;;9.43;6.45;;;;;;;;;;10589373;27;20490;-82
2023/03/28 22:18:10;;;;;;;8.85;6.75;;;;;;;;;;10569392;28;20405;-82
2023/03/28 22:23:12;;;;;;;10.45;7.03;;;;;;;;;;10605831;27;20454;-82
2023/03/28 22:28:14;;;;;;;12.00;6.73;;;;;;;;;;10595477;27;20390;-82
2023/03/28 22:33:18;;;;;;;9.25;6.75;;;;;;;;;;10579276;28;20904;-82
2023/03/28 22:38:20;;;;;;;8.77;7.17;;;;;;;;;;10581053;27;20410;-82
2023/03/28 22:43:23;;;;;;;10.05;6.22;;;;;;;;;;10604053;27;20402;-82
2023/03/28 22:48:28;;;;;;;8.63;6.30;;;;;;;;;;10614320;27;21097;-82
2023/03/28 22:53:30;;;;;;;7.27;5.90;;;;;;;;;;10590150;27;20423;-82
2023/03/28 22:58:33;;;;;;;11.38;6.30;;;;;;;;;;10599711;27;20889;-82
2023/03/28 23:03:36;;;;;;;9.18;6.20;;;;;;;;;;10585177;27;20770;-82
2023/03/28 23:08:38;;;;;;;9.98;6.50;;;;;;;;;;10591348;27;20406;-83
2023/03/28 23:13:40;;;;;;;10.33;6.00;;;;;;;;;;10604448;27;20481;-82
2023/03/28 23:18:43;;;;;;;7.82;6.20;;;;;;;;;;10606337;27;20421;-82
2023/03/28 23:23:46;;;;;;;11.45;6.40;;;;;;;;;;10591594;27;20394;-82
2023/03/28 23:28:48;;;;;;;10.47;6.90;;;;;;;;;;10605478;27;20470;-82
2023/03/28 23:33:51;;;;;;;9.43;6.68;;;;;;;;;;10607732;27;20901;-82
2023/03/28 23:38:53;;;;;;;9.30;6.45;;;;;;;;;;10591019;27;20400;-83
2023/03/28 23:43:55;;;;;;;8.70;6.82;;;;;;;;;;10605854;27;20487;-82
2023/03/28 23:48:58;;;;;;;8.53;6.30;;;;;;;;;;10604313;27;20520;-82
2023/03/28 23:54:00;;;;;;;8.98;6.03;;;;;;;;;;10578424;28;20906;-82
2023/03/28 23:59:01;;;;;;;8.25;6.40;;;;;;;;;;10604620;27;20849;-83
